sensor_id;sensor_type;location;lat;lon;timestamp;P1;durP1;ratioP1;P2;durP2;ratioP2
69197;SDS011;56311;50.298;8.514;2022-08-03T00:02:14;3.88;;;2.38;;
69197;SDS011;56311;50.298;8.514;2022-08-03T00:04:42;5.18;;;2.30;;
69197;SDS011;56311;50.298;8.514;2022-08-03T00:07:09;4.35;;;2.20;;
69197;SDS011;56311;50.298;8.514;2022-08-03T00:09:36;5.07;;;2.20;;
69197;SDS011;56311;50.298;8.514;2022-08-03T00:12:03;4.43;;;2.22;;
69197;SDS011;56311;50.298;8.514;2022-08-03T00:14:31;5.35;;;2.40;;
69197;SDS011;56311;50.298;8.514;2022-08-03T00:16:59;4.47;;;2.45;;
69197;SDS011;56311;50.298;8.514;2022-08-03T00:19:26;3.38;;;2.40;;
69197;SDS011;56311;50.298;8.514;2022-08-03T00:21:53;4.78;;;2.65;;
69197;SDS011;56311;50.298;8.514;2022-08-03T00:24:20;8.15;;;3.10;;
69197;SDS011;56311;50.298;8.514;2022-08-03T00:26:48;6.97;;;3.10;;
69197;SDS011;56311;50.298;8.514;2022-08-03T00:29:15;3.90;;;2.47;;
69197;SDS011;56311;50.298;8.514;2022-08-03T00:31:42;4.38;;;2.30;;
69197;SDS011;56311;50.298;8.514;2022-08-03T00:34:26;4.57;;;2.13;;
69197;SDS011;56311;50.298;8.514;2022-08-03T00:37:13;4.78;;;2.88;;
69197;SDS011;56311;50.298;8.514;2022-08-03T00:39:41;4.22;;;2.60;;
69197;SDS011;56311;50.298;8.514;2022-08-03T00:42:11;4.47;;;2.33;;
69197;SDS011;56311;50.298;8.514;2022-08-03T00:44:39;4.20;;;2.75;;
69197;SDS011;56311;50.298;8.514;2022-08-03T00:47:07;3.60;;;2.40;;
69197;SDS011;56311;50.298;8.514;2022-08-03T00:49:37;6.18;;;2.80;;
69197;SDS011;56311;50.298;8.514;2022-08-03T00:52:06;4.70;;;2.35;;
69197;SDS011;56311;50.298;8.514;2022-08-03T00:54:43;4.00;;;2.58;;
69197;SDS011;56311;50.298;8.514;2022-08-03T00:57:10;4.65;;;2.78;;
69197;SDS011;56311;50.298;8.514;2022-08-03T00:59:38;4.80;;;3.20;;
69197;SDS011;56311;50.298;8.514;2022-08-03T01:02:05;7.30;;;3.45;;
69197;SDS011;56311;50.298;8.514;2022-08-03T01:04:32;7.13;;;3.20;;
69197;SDS011;56311;50.298;8.514;2022-08-03T01:07:02;6.43;;;3.42;;
69197;SDS011;56311;50.298;8.514;2022-08-03T01:09:40;7.25;;;2.85;;
69197;SDS011;56311;50.298;8.514;2022-08-03T01:12:16;6.35;;;3.00;;
69197;SDS011;56311;50.298;8.514;2022-08-03T01:14:49;4.65;;;2.75;;
69197;SDS011;56311;50.298;8.514;2022-08-03T01:17:22;4.57;;;2.73;;
69197;SDS011;56311;50.298;8.514;2022-08-03T01:19:59;4.65;;;2.78;;
69197;SDS011;56311;50.298;8.514;2022-08-03T01:22:50;4.95;;;2.42;;
69197;SDS011;56311;50.298;8.514;2022-08-03T01:25:33;4.32;;;2.70;;
69197;SDS011;56311;50.298;8.514;2022-08-03T01:28:19;6.05;;;2.22;;
69197;SDS011;56311;50.298;8.514;2022-08-03T01:30:57;4.43;;;2.58;;
69197;SDS011;56311;50.298;8.514;2022-08-03T01:33:31;4.78;;;2.60;;
69197;SDS011;56311;50.298;8.514;2022-08-03T01:36:03;3.40;;;2.20;;
69197;SDS011;56311;50.298;8.514;2022-08-03T01:38:33;5.80;;;2.38;;
69197;SDS011;56311;50.298;8.514;2022-08-03T01:41:06;5.32;;;2.50;;
69197;SDS011;56311;50.298;8.514;2022-08-03T01:43:37;3.72;;;2.42;;
69197;SDS011;56311;50.298;8.514;2022-08-03T01:46:29;3.53;;;2.10;;
69197;SDS011;56311;50.298;8.514;2022-08-03T01:48:57;4.00;;;2.30;;
69197;SDS011;56311;50.298;8.514;2022-08-03T01:51:34;4.32;;;2.30;;
69197;SDS011;56311;50.298;8.514;2022-08-03T01:54:23;4.10;;;2.20;;
69197;SDS011;56311;50.298;8.514;2022-08-03T01:56:51;4.20;;;2.42;;
69197;SDS011;56311;50.298;8.514;2022-08-03T01:59:19;8.23;;;5.53;;
69197;SDS011;56311;50.298;8.514;2022-08-03T02:01:49;9.73;;;6.68;;
69197;SDS011;56311;50.298;8.514;2022-08-03T02:04:38;10.63;;;7.80;;
69197;SDS011;56311;50.298;8.514;2022-08-03T02:07:08;11.10;;;7.22;;
69197;SDS011;56311;50.298;8.514;2022-08-03T02:09:36;10.43;;;6.70;;
69197;SDS011;56311;50.298;8.514;2022-08-03T02:12:06;10.05;;;6.57;;
69197;SDS011;56311;50.298;8.514;2022-08-03T02:14:34;7.65;;;5.50;;
69197;SDS011;56311;50.298;8.514;2022-08-03T02:17:06;7.28;;;4.90;;
69197;SDS011;56311;50.298;8.514;2022-08-03T02:19:35;7.38;;;4.78;;
69197;SDS011;56311;50.298;8.514;2022-08-03T02:22:03;6.53;;;4.22;;
69197;SDS011;56311;50.298;8.514;2022-08-03T02:24:33;6.05;;;4.50;;
69197;SDS011;56311;50.298;8.514;2022-08-03T02:27:00;6.95;;;4.30;;
69197;SDS011;56311;50.298;8.514;2022-08-03T02:29:33;6.00;;;4.35;;
69197;SDS011;56311;50.298;8.514;2022-08-03T02:32:08;5.28;;;3.53;;
69197;SDS011;56311;50.298;8.514;2022-08-03T02:34:40;5.15;;;3.47;;
69197;SDS011;56311;50.298;8.514;2022-08-03T02:37:11;5.97;;;3.47;;
69197;SDS011;56311;50.298;8.514;2022-08-03T02:39:38;4.65;;;3.05;;
69197;SDS011;56311;50.298;8.514;2022-08-03T02:42:08;6.93;;;3.30;;
69197;SDS011;56311;50.298;8.514;2022-08-03T02:44:38;4.65;;;3.10;;
69197;SDS011;56311;50.298;8.514;2022-08-03T02:47:10;5.95;;;2.90;;
69197;SDS011;56311;50.298;8.514;2022-08-03T02:49:38;5.18;;;2.53;;
69197;SDS011;56311;50.298;8.514;2022-08-03T02:52:17;4.55;;;2.80;;
69197;SDS011;56311;50.298;8.514;2022-08-03T02:54:47;4.22;;;2.65;;
69197;SDS011;56311;50.298;8.514;2022-08-03T02:57:16;5.10;;;2.70;;
69197;SDS011;56311;50.298;8.514;2022-08-03T02:59:45;7.60;;;2.95;;
69197;SDS011;56311;50.298;8.514;2022-08-03T03:02:14;4.40;;;2.63;;
69197;SDS011;56311;50.298;8.514;2022-08-03T03:04:43;4.65;;;2.42;;
69197;SDS011;56311;50.298;8.514;2022-08-03T03:07:31;8.45;;;2.80;;
69197;SDS011;56311;50.298;8.514;2022-08-03T03:10:16;4.63;;;2.95;;
69197;SDS011;56311;50.298;8.514;2022-08-03T03:12:44;4.63;;;2.50;;
69197;SDS011;56311;50.298;8.514;2022-08-03T03:15:12;7.40;;;2.83;;
69197;SDS011;56311;50.298;8.514;2022-08-03T03:17:40;6.18;;;2.70;;
69197;SDS011;56311;50.298;8.514;2022-08-03T03:20:09;5.75;;;3.00;;
69197;SDS011;56311;50.298;8.514;2022-08-03T03:22:37;3.92;;;2.42;;
69197;SDS011;56311;50.298;8.514;2022-08-03T03:25:10;3.80;;;2.33;;
69197;SDS011;56311;50.298;8.514;2022-08-03T03:27:37;6.10;;;2.70;;
69197;SDS011;56311;50.298;8.514;2022-08-03T03:30:05;3.70;;;2.30;;
69197;SDS011;56311;50.298;8.514;2022-08-03T03:32:33;4.45;;;2.47;;
69197;SDS011;56311;50.298;8.514;2022-08-03T03:35:04;4.63;;;2.45;;
69197;SDS011;56311;50.298;8.514;2022-08-03T03:37:32;3.63;;;2.40;;
69197;SDS011;56311;50.298;8.514;2022-08-03T03:39:59;4.85;;;2.03;;
69197;SDS011;56311;50.298;8.514;2022-08-03T03:42:25;4.45;;;2.60;;
69197;SDS011;56311;50.298;8.514;2022-08-03T03:44:52;4.05;;;2.40;;
69197;SDS011;56311;50.298;8.514;2022-08-03T03:47:20;4.45;;;2.30;;
69197;SDS011;56311;50.298;8.514;2022-08-03T03:49:58;6.13;;;2.30;;
69197;SDS011;56311;50.298;8.514;2022-08-03T03:52:26;5.03;;;2.50;;
69197;SDS011;56311;50.298;8.514;2022-08-03T03:54:53;4.75;;;2.20;;
69197;SDS011;56311;50.298;8.514;2022-08-03T03:57:26;6.95;;;2.70;;
69197;SDS011;56311;50.298;8.514;2022-08-03T03:59:53;9.43;;;2.65;;
69197;SDS011;56311;50.298;8.514;2022-08-03T04:02:20;4.00;;;2.20;;
69197;SDS011;56311;50.298;8.514;2022-08-03T04:04:47;4.47;;;2.20;;
69197;SDS011;56311;50.298;8.514;2022-08-03T04:07:35;4.95;;;2.10;;
69197;SDS011;56311;50.298;8.514;2022-08-03T04:10:30;3.55;;;2.30;;
69197;SDS011;56311;50.298;8.514;2022-08-03T04:13:19;4.10;;;2.20;;
69197;SDS011;56311;50.298;8.514;2022-08-03T04:15:47;3.78;;;2.08;;
69197;SDS011;56311;50.298;8.514;2022-08-03T04:18:16;3.88;;;2.13;;
69197;SDS011;56311;50.298;8.514;2022-08-03T04:20:44;3.85;;;1.95;;
69197;SDS011;56311;50.298;8.514;2022-08-03T04:23:16;4.60;;;2.22;;
69197;SDS011;56311;50.298;8.514;2022-08-03T04:25:46;3.90;;;2.30;;
69197;SDS011;56311;50.298;8.514;2022-08-03T04:28:17;5.13;;;2.40;;
69197;SDS011;56311;50.298;8.514;2022-08-03T04:30:55;4.68;;;2.20;;
69197;SDS011;56311;50.298;8.514;2022-08-03T04:33:23;5.70;;;2.17;;
69197;SDS011;56311;50.298;8.514;2022-08-03T04:35:55;3.60;;;2.13;;
69197;SDS011;56311;50.298;8.514;2022-08-03T04:40:58;3.67;;;2.08;;
69197;SDS011;56311;50.298;8.514;2022-08-03T04:43:26;4.03;;;2.25;;
69197;SDS011;56311;50.298;8.514;2022-08-03T04:45:53;4.63;;;2.42;;
69197;SDS011;56311;50.298;8.514;2022-08-03T04:48:22;4.90;;;2.33;;
69197;SDS011;56311;50.298;8.514;2022-08-03T04:50:49;5.93;;;2.65;;
69197;SDS011;56311;50.298;8.514;2022-08-03T04:53:17;5.22;;;2.25;;
69197;SDS011;56311;50.298;8.514;2022-08-03T04:55:46;3.95;;;2.38;;
69197;SDS011;56311;50.298;8.514;2022-08-03T04:58:13;4.57;;;2.13;;
69197;SDS011;56311;50.298;8.514;2022-08-03T05:00:40;4.68;;;2.35;;
69197;SDS011;56311;50.298;8.514;2022-08-03T05:03:08;4.22;;;2.50;;
69197;SDS011;56311;50.298;8.514;2022-08-03T05:05:49;6.82;;;2.67;;
69197;SDS011;56311;50.298;8.514;2022-08-03T05:08:17;4.95;;;2.20;;
69197;SDS011;56311;50.298;8.514;2022-08-03T05:10:54;3.70;;;2.40;;
69197;SDS011;56311;50.298;8.514;2022-08-03T05:13:24;3.30;;;2.20;;
69197;SDS011;56311;50.298;8.514;2022-08-03T05:15:51;6.57;;;2.40;;
69197;SDS011;56311;50.298;8.514;2022-08-03T05:18:18;6.80;;;2.63;;
69197;SDS011;56311;50.298;8.514;2022-08-03T05:20:45;5.60;;;2.30;;
69197;SDS011;56311;50.298;8.514;2022-08-03T05:23:12;5.47;;;2.40;;
69197;SDS011;56311;50.298;8.514;2022-08-03T05:25:39;3.97;;;2.30;;
69197;SDS011;56311;50.298;8.514;2022-08-03T05:28:16;3.15;;;2.10;;
69197;SDS011;56311;50.298;8.514;2022-08-03T05:30:43;4.80;;;2.25;;
69197;SDS011;56311;50.298;8.514;2022-08-03T05:33:10;6.40;;;2.75;;
69197;SDS011;56311;50.298;8.514;2022-08-03T05:35:37;3.65;;;2.20;;
69197;SDS011;56311;50.298;8.514;2022-08-03T05:38:25;3.83;;;2.33;;
69197;SDS011;56311;50.298;8.514;2022-08-03T05:40:54;5.47;;;2.10;;
69197;SDS011;56311;50.298;8.514;2022-08-03T05:43:43;6.30;;;2.00;;
69197;SDS011;56311;50.298;8.514;2022-08-03T05:46:11;4.10;;;2.33;;
69197;SDS011;56311;50.298;8.514;2022-08-03T05:48:38;4.72;;;2.10;;
69197;SDS011;56311;50.298;8.514;2022-08-03T05:51:05;5.18;;;2.05;;
69197;SDS011;56311;50.298;8.514;2022-08-03T05:53:37;5.32;;;2.20;;
69197;SDS011;56311;50.298;8.514;2022-08-03T05:56:04;6.28;;;2.13;;
69197;SDS011;56311;50.298;8.514;2022-08-03T05:58:40;7.93;;;2.22;;
69197;SDS011;56311;50.298;8.514;2022-08-03T06:01:09;5.28;;;2.30;;
69197;SDS011;56311;50.298;8.514;2022-08-03T06:03:37;6.70;;;2.70;;
69197;SDS011;56311;50.298;8.514;2022-08-03T06:06:04;10.27;;;2.42;;
69197;SDS011;56311;50.298;8.514;2022-08-03T06:08:31;7.72;;;2.08;;
69197;SDS011;56311;50.298;8.514;2022-08-03T06:10:58;6.07;;;2.60;;
69197;SDS011;56311;50.298;8.514;2022-08-03T06:13:25;8.43;;;1.98;;
69197;SDS011;56311;50.298;8.514;2022-08-03T06:15:52;7.15;;;2.00;;
69197;SDS011;56311;50.298;8.514;2022-08-03T06:18:20;4.18;;;2.08;;
69197;SDS011;56311;50.298;8.514;2022-08-03T06:20:49;6.35;;;2.00;;
69197;SDS011;56311;50.298;8.514;2022-08-03T06:23:17;3.90;;;1.95;;
69197;SDS011;56311;50.298;8.514;2022-08-03T06:25:45;3.90;;;1.80;;
69197;SDS011;56311;50.298;8.514;2022-08-03T06:28:12;7.68;;;2.15;;
69197;SDS011;56311;50.298;8.514;2022-08-03T06:30:59;6.70;;;1.90;;
69197;SDS011;56311;50.298;8.514;2022-08-03T06:33:28;7.60;;;1.95;;
69197;SDS011;56311;50.298;8.514;2022-08-03T06:36:15;3.65;;;1.67;;
69197;SDS011;56311;50.298;8.514;2022-08-03T06:38:42;6.28;;;1.88;;
69197;SDS011;56311;50.298;8.514;2022-08-03T06:41:09;6.05;;;2.05;;
69197;SDS011;56311;50.298;8.514;2022-08-03T06:43:36;5.55;;;1.67;;
69197;SDS011;56311;50.298;8.514;2022-08-03T06:46:23;4.60;;;1.80;;
69197;SDS011;56311;50.298;8.514;2022-08-03T06:48:52;4.95;;;1.58;;
69197;SDS011;56311;50.298;8.514;2022-08-03T06:51:21;4.90;;;1.75;;
69197;SDS011;56311;50.298;8.514;2022-08-03T06:54:08;8.07;;;1.60;;
69197;SDS011;56311;50.298;8.514;2022-08-03T06:56:36;5.97;;;1.77;;
69197;SDS011;56311;50.298;8.514;2022-08-03T06:59:03;4.30;;;1.77;;
69197;SDS011;56311;50.298;8.514;2022-08-03T07:01:30;5.28;;;2.00;;
69197;SDS011;56311;50.298;8.514;2022-08-03T07:03:59;7.97;;;2.10;;
69197;SDS011;56311;50.298;8.514;2022-08-03T07:06:27;7.75;;;1.75;;
69197;SDS011;56311;50.298;8.514;2022-08-03T07:08:54;10.13;;;1.92;;
69197;SDS011;56311;50.298;8.514;2022-08-03T07:11:25;8.70;;;1.60;;
69197;SDS011;56311;50.298;8.514;2022-08-03T07:13:52;5.03;;;1.67;;
69197;SDS011;56311;50.298;8.514;2022-08-03T07:16:19;5.28;;;1.80;;
69197;SDS011;56311;50.298;8.514;2022-08-03T07:18:46;5.03;;;1.85;;
69197;SDS011;56311;50.298;8.514;2022-08-03T07:21:15;4.65;;;1.73;;
69197;SDS011;56311;50.298;8.514;2022-08-03T07:23:42;6.97;;;1.63;;
69197;SDS011;56311;50.298;8.514;2022-08-03T07:26:09;5.15;;;1.50;;
69197;SDS011;56311;50.298;8.514;2022-08-03T07:28:37;6.22;;;1.52;;
69197;SDS011;56311;50.298;8.514;2022-08-03T07:31:04;8.25;;;1.90;;
69197;SDS011;56311;50.298;8.514;2022-08-03T07:33:31;6.28;;;1.60;;
69197;SDS011;56311;50.298;8.514;2022-08-03T07:35:58;3.67;;;1.50;;
69197;SDS011;56311;50.298;8.514;2022-08-03T07:38:26;4.00;;;1.70;;
69197;SDS011;56311;50.298;8.514;2022-08-03T07:40:55;7.95;;;1.80;;
69197;SDS011;56311;50.298;8.514;2022-08-03T07:43:22;6.32;;;1.50;;
69197;SDS011;56311;50.298;8.514;2022-08-03T07:45:50;7.32;;;1.60;;
69197;SDS011;56311;50.298;8.514;2022-08-03T07:48:17;5.13;;;1.48;;
69197;SDS011;56311;50.298;8.514;2022-08-03T07:50:44;6.03;;;1.48;;
69197;SDS011;56311;50.298;8.514;2022-08-03T07:53:11;4.03;;;1.40;;
69197;SDS011;56311;50.298;8.514;2022-08-03T07:55:41;5.47;;;1.13;;
69197;SDS011;56311;50.298;8.514;2022-08-03T07:58:08;3.03;;;1.33;;
69197;SDS011;56311;50.298;8.514;2022-08-03T08:00:49;5.05;;;1.10;;
69197;SDS011;56311;50.298;8.514;2022-08-03T08:03:18;4.40;;;1.13;;
69197;SDS011;56311;50.298;8.514;2022-08-03T08:05:47;5.05;;;1.25;;
69197;SDS011;56311;50.298;8.514;2022-08-03T08:08:15;3.28;;;1.20;;
69197;SDS011;56311;50.298;8.514;2022-08-03T08:10:43;3.80;;;1.30;;
69197;SDS011;56311;50.298;8.514;2022-08-03T08:13:24;3.45;;;1.10;;
69197;SDS011;56311;50.298;8.514;2022-08-03T08:15:51;3.63;;;1.33;;
69197;SDS011;56311;50.298;8.514;2022-08-03T08:18:18;3.58;;;1.10;;
69197;SDS011;56311;50.298;8.514;2022-08-03T08:20:46;3.00;;;1.00;;
69197;SDS011;56311;50.298;8.514;2022-08-03T08:23:13;3.28;;;1.08;;
69197;SDS011;56311;50.298;8.514;2022-08-03T08:26:01;3.53;;;1.10;;
69197;SDS011;56311;50.298;8.514;2022-08-03T08:28:28;4.75;;;1.15;;
69197;SDS011;56311;50.298;8.514;2022-08-03T08:30:59;3.38;;;1.20;;
69197;SDS011;56311;50.298;8.514;2022-08-03T08:33:26;4.72;;;1.30;;
69197;SDS011;56311;50.298;8.514;2022-08-03T08:36:13;2.85;;;1.13;;
69197;SDS011;56311;50.298;8.514;2022-08-03T08:38:41;4.03;;;1.20;;
69197;SDS011;56311;50.298;8.514;2022-08-03T08:41:12;5.13;;;1.17;;
69197;SDS011;56311;50.298;8.514;2022-08-03T08:43:41;17.45;;;1.27;;
69197;SDS011;56311;50.298;8.514;2022-08-03T08:46:09;6.13;;;1.20;;
69197;SDS011;56311;50.298;8.514;2022-08-03T08:48:49;12.15;;;1.67;;
69197;SDS011;56311;50.298;8.514;2022-08-03T08:51:18;6.50;;;1.40;;
69197;SDS011;56311;50.298;8.514;2022-08-03T08:53:48;3.10;;;1.13;;
69197;SDS011;56311;50.298;8.514;2022-08-03T08:56:19;6.60;;;1.13;;
69197;SDS011;56311;50.298;8.514;2022-08-03T08:58:50;3.03;;;1.20;;
69197;SDS011;56311;50.298;8.514;2022-08-03T09:01:19;2.70;;;1.30;;
69197;SDS011;56311;50.298;8.514;2022-08-03T09:03:47;4.03;;;1.05;;
69197;SDS011;56311;50.298;8.514;2022-08-03T09:06:15;4.35;;;1.40;;
69197;SDS011;56311;50.298;8.514;2022-08-03T09:08:42;3.90;;;1.00;;
69197;SDS011;56311;50.298;8.514;2022-08-03T09:11:10;3.28;;;1.42;;
69197;SDS011;56311;50.298;8.514;2022-08-03T09:13:39;3.15;;;1.20;;
69197;SDS011;56311;50.298;8.514;2022-08-03T09:16:08;3.22;;;1.45;;
69197;SDS011;56311;50.298;8.514;2022-08-03T09:18:37;4.63;;;1.20;;
69197;SDS011;56311;50.298;8.514;2022-08-03T09:21:12;3.33;;;1.48;;
69197;SDS011;56311;50.298;8.514;2022-08-03T09:23:57;3.03;;;1.40;;
69197;SDS011;56311;50.298;8.514;2022-08-03T09:26:30;6.65;;;1.52;;
69197;SDS011;56311;50.298;8.514;2022-08-03T09:29:01;4.22;;;1.20;;
69197;SDS011;56311;50.298;8.514;2022-08-03T09:31:35;2.80;;;1.30;;
69197;SDS011;56311;50.298;8.514;2022-08-03T09:34:09;5.18;;;1.30;;
69197;SDS011;56311;50.298;8.514;2022-08-03T09:36:38;3.92;;;1.30;;
69197;SDS011;56311;50.298;8.514;2022-08-03T09:39:09;3.75;;;1.50;;
69197;SDS011;56311;50.298;8.514;2022-08-03T09:41:38;4.10;;;1.35;;
69197;SDS011;56311;50.298;8.514;2022-08-03T09:44:09;3.00;;;1.20;;
69197;SDS011;56311;50.298;8.514;2022-08-03T09:49:19;3.85;;;1.20;;
69197;SDS011;56311;50.298;8.514;2022-08-03T09:51:46;4.13;;;1.40;;
69197;SDS011;56311;50.298;8.514;2022-08-03T09:54:34;3.10;;;1.15;;
69197;SDS011;56311;50.298;8.514;2022-08-03T09:57:01;3.53;;;1.20;;
69197;SDS011;56311;50.298;8.514;2022-08-03T09:59:31;2.53;;;0.90;;
69197;SDS011;56311;50.298;8.514;2022-08-03T10:01:59;3.80;;;1.30;;
69197;SDS011;56311;50.298;8.514;2022-08-03T10:04:27;4.55;;;1.20;;
69197;SDS011;56311;50.298;8.514;2022-08-03T10:07:01;7.88;;;1.52;;
69197;SDS011;56311;50.298;8.514;2022-08-03T10:09:30;4.97;;;1.52;;
69197;SDS011;56311;50.298;8.514;2022-08-03T10:12:05;2.85;;;1.20;;
69197;SDS011;56311;50.298;8.514;2022-08-03T10:14:35;3.60;;;1.10;;
69197;SDS011;56311;50.298;8.514;2022-08-03T10:17:03;5.55;;;1.90;;
69197;SDS011;56311;50.298;8.514;2022-08-03T10:19:31;3.65;;;1.20;;
69197;SDS011;56311;50.298;8.514;2022-08-03T10:22:00;3.90;;;1.23;;
69197;SDS011;56311;50.298;8.514;2022-08-03T10:24:30;4.32;;;1.20;;
69197;SDS011;56311;50.298;8.514;2022-08-03T10:27:02;5.28;;;1.20;;
69197;SDS011;56311;50.298;8.514;2022-08-03T10:29:38;2.85;;;1.25;;
69197;SDS011;56311;50.298;8.514;2022-08-03T10:32:11;3.28;;;1.10;;
69197;SDS011;56311;50.298;8.514;2022-08-03T10:34:41;4.33;;;1.40;;
69197;SDS011;56311;50.298;8.514;2022-08-03T10:37:10;4.60;;;1.40;;
69197;SDS011;56311;50.298;8.514;2022-08-03T10:39:39;5.00;;;1.10;;
69197;SDS011;56311;50.298;8.514;2022-08-03T10:42:22;2.35;;;1.05;;
69197;SDS011;56311;50.298;8.514;2022-08-03T10:44:55;3.20;;;1.30;;
69197;SDS011;56311;50.298;8.514;2022-08-03T10:47:29;4.07;;;1.25;;
69197;SDS011;56311;50.298;8.514;2022-08-03T10:49:58;2.60;;;1.20;;
69197;SDS011;56311;50.298;8.514;2022-08-03T10:52:26;3.65;;;1.38;;
69197;SDS011;56311;50.298;8.514;2022-08-03T10:55:01;3.15;;;1.40;;
69197;SDS011;56311;50.298;8.514;2022-08-03T10:57:47;6.70;;;1.20;;
69197;SDS011;56311;50.298;8.514;2022-08-03T11:00:25;3.70;;;1.20;;
69197;SDS011;56311;50.298;8.514;2022-08-03T11:03:00;8.18;;;1.50;;
69197;SDS011;56311;50.298;8.514;2022-08-03T11:05:35;4.88;;;1.23;;
69197;SDS011;56311;50.298;8.514;2022-08-03T11:08:19;6.90;;;1.50;;
69197;SDS011;56311;50.298;8.514;2022-08-03T11:10:48;3.92;;;1.15;;
69197;SDS011;56311;50.298;8.514;2022-08-03T11:13:16;6.45;;;1.27;;
69197;SDS011;56311;50.298;8.514;2022-08-03T11:15:48;8.35;;;1.23;;
69197;SDS011;56311;50.298;8.514;2022-08-03T11:18:16;2.70;;;1.30;;
69197;SDS011;56311;50.298;8.514;2022-08-03T11:20:47;3.35;;;1.40;;
69197;SDS011;56311;50.298;8.514;2022-08-03T11:23:16;4.80;;;1.30;;
69197;SDS011;56311;50.298;8.514;2022-08-03T11:26:08;4.22;;;1.42;;
69197;SDS011;56311;50.298;8.514;2022-08-03T11:28:36;2.70;;;1.33;;
69197;SDS011;56311;50.298;8.514;2022-08-03T11:34:16;4.78;;;1.42;;
69197;SDS011;56311;50.298;8.514;2022-08-03T11:39:47;5.45;;;1.40;;
69197;SDS011;56311;50.298;8.514;2022-08-03T11:45:12;4.43;;;1.60;;
69197;SDS011;56311;50.298;8.514;2022-08-03T11:47:41;3.83;;;1.67;;
69197;SDS011;56311;50.298;8.514;2022-08-03T11:50:16;7.05;;;2.15;;
69197;SDS011;56311;50.298;8.514;2022-08-03T11:52:45;4.05;;;1.40;;
69197;SDS011;56311;50.298;8.514;2022-08-03T11:55:14;3.58;;;1.67;;
69197;SDS011;56311;50.298;8.514;2022-08-03T11:57:44;3.38;;;1.60;;
69197;SDS011;56311;50.298;8.514;2022-08-03T12:00:32;4.22;;;1.17;;
69197;SDS011;56311;50.298;8.514;2022-08-03T12:03:02;4.85;;;1.40;;
69197;SDS011;56311;50.298;8.514;2022-08-03T12:05:35;5.75;;;1.65;;
69197;SDS011;56311;50.298;8.514;2022-08-03T12:10:32;4.68;;;1.60;;
69197;SDS011;56311;50.298;8.514;2022-08-03T12:13:00;3.03;;;1.10;;
69197;SDS011;56311;50.298;8.514;2022-08-03T12:15:51;3.97;;;1.30;;
69197;SDS011;56311;50.298;8.514;2022-08-03T12:18:21;6.55;;;1.35;;
69197;SDS011;56311;50.298;8.514;2022-08-03T12:20:49;3.33;;;1.20;;
69197;SDS011;56311;50.298;8.514;2022-08-03T12:23:17;4.82;;;1.30;;
69197;SDS011;56311;50.298;8.514;2022-08-03T12:25:45;9.32;;;1.38;;
69197;SDS011;56311;50.298;8.514;2022-08-03T12:28:16;2.83;;;1.10;;
69197;SDS011;56311;50.298;8.514;2022-08-03T12:31:04;5.32;;;1.27;;
69197;SDS011;56311;50.298;8.514;2022-08-03T12:33:53;4.38;;;1.30;;
69197;SDS011;56311;50.298;8.514;2022-08-03T12:36:21;4.32;;;1.10;;
69197;SDS011;56311;50.298;8.514;2022-08-03T12:38:53;7.05;;;1.50;;
69197;SDS011;56311;50.298;8.514;2022-08-03T12:41:26;4.05;;;2.00;;
69197;SDS011;56311;50.298;8.514;2022-08-03T12:43:54;7.10;;;2.25;;
69197;SDS011;56311;50.298;8.514;2022-08-03T12:46:22;3.78;;;1.63;;
69197;SDS011;56311;50.298;8.514;2022-08-03T12:48:59;8.02;;;1.85;;
69197;SDS011;56311;50.298;8.514;2022-08-03T12:51:30;4.82;;;1.20;;
69197;SDS011;56311;50.298;8.514;2022-08-03T12:53:58;4.93;;;1.30;;
69197;SDS011;56311;50.298;8.514;2022-08-03T12:56:25;3.30;;;1.40;;
69197;SDS011;56311;50.298;8.514;2022-08-03T12:58:52;4.60;;;1.42;;
69197;SDS011;56311;50.298;8.514;2022-08-03T13:01:19;5.20;;;1.70;;
69197;SDS011;56311;50.298;8.514;2022-08-03T13:03:53;4.10;;;1.45;;
69197;SDS011;56311;50.298;8.514;2022-08-03T13:06:22;3.75;;;1.23;;
69197;SDS011;56311;50.298;8.514;2022-08-03T13:09:00;4.40;;;1.33;;
69197;SDS011;56311;50.298;8.514;2022-08-03T13:11:28;5.15;;;1.58;;
69197;SDS011;56311;50.298;8.514;2022-08-03T13:14:15;4.63;;;1.20;;
69197;SDS011;56311;50.298;8.514;2022-08-03T13:16:46;5.03;;;1.23;;
69197;SDS011;56311;50.298;8.514;2022-08-03T13:19:13;5.82;;;1.10;;
69197;SDS011;56311;50.298;8.514;2022-08-03T13:21:42;4.38;;;1.17;;
69197;SDS011;56311;50.298;8.514;2022-08-03T13:24:29;3.05;;;1.15;;
69197;SDS011;56311;50.298;8.514;2022-08-03T13:26:57;4.00;;;1.35;;
69197;SDS011;56311;50.298;8.514;2022-08-03T13:29:24;3.15;;;1.20;;
69197;SDS011;56311;50.298;8.514;2022-08-03T13:31:51;2.90;;;1.10;;
69197;SDS011;56311;50.298;8.514;2022-08-03T13:34:18;3.35;;;1.20;;
69197;SDS011;56311;50.298;8.514;2022-08-03T13:36:50;4.68;;;1.00;;
69197;SDS011;56311;50.298;8.514;2022-08-03T13:39:34;4.25;;;1.10;;
69197;SDS011;56311;50.298;8.514;2022-08-03T13:42:21;5.00;;;1.02;;
69197;SDS011;56311;50.298;8.514;2022-08-03T13:44:48;2.75;;;1.08;;
69197;SDS011;56311;50.298;8.514;2022-08-03T13:47:16;3.55;;;1.00;;
69197;SDS011;56311;50.298;8.514;2022-08-03T13:49:43;2.97;;;1.10;;
69197;SDS011;56311;50.298;8.514;2022-08-03T13:52:27;3.20;;;1.00;;
69197;SDS011;56311;50.298;8.514;2022-08-03T13:54:54;2.10;;;0.90;;
69197;SDS011;56311;50.298;8.514;2022-08-03T13:57:21;3.78;;;1.20;;
69197;SDS011;56311;50.298;8.514;2022-08-03T14:00:09;3.80;;;0.98;;
69197;SDS011;56311;50.298;8.514;2022-08-03T14:02:37;2.70;;;1.00;;
69197;SDS011;56311;50.298;8.514;2022-08-03T14:05:04;4.65;;;1.05;;
69197;SDS011;56311;50.298;8.514;2022-08-03T14:07:34;3.03;;;1.00;;
69197;SDS011;56311;50.298;8.514;2022-08-03T14:10:02;3.03;;;1.10;;
69197;SDS011;56311;50.298;8.514;2022-08-03T14:12:29;5.38;;;1.10;;
69197;SDS011;56311;50.298;8.514;2022-08-03T14:14:57;3.45;;;0.90;;
69197;SDS011;56311;50.298;8.514;2022-08-03T14:17:27;3.45;;;1.23;;
69197;SDS011;56311;50.298;8.514;2022-08-03T14:20:14;3.13;;;0.90;;
69197;SDS011;56311;50.298;8.514;2022-08-03T14:23:02;2.33;;;0.90;;
69197;SDS011;56311;50.298;8.514;2022-08-03T14:25:29;3.67;;;0.73;;
69197;SDS011;56311;50.298;8.514;2022-08-03T14:28:15;5.25;;;0.93;;
69197;SDS011;56311;50.298;8.514;2022-08-03T14:30:42;3.38;;;1.00;;
69197;SDS011;56311;50.298;8.514;2022-08-03T14:33:09;4.75;;;1.00;;
69197;SDS011;56311;50.298;8.514;2022-08-03T14:35:36;2.53;;;0.90;;
69197;SDS011;56311;50.298;8.514;2022-08-03T14:38:05;4.28;;;0.88;;
69197;SDS011;56311;50.298;8.514;2022-08-03T14:40:32;2.47;;;0.70;;
69197;SDS011;56311;50.298;8.514;2022-08-03T14:42:59;3.00;;;0.95;;
69197;SDS011;56311;50.298;8.514;2022-08-03T14:45:27;3.72;;;1.13;;
69197;SDS011;56311;50.298;8.514;2022-08-03T14:47:54;2.30;;;0.90;;
69197;SDS011;56311;50.298;8.514;2022-08-03T14:50:41;4.13;;;0.85;;
69197;SDS011;56311;50.298;8.514;2022-08-03T14:53:17;4.25;;;1.10;;
69197;SDS011;56311;50.298;8.514;2022-08-03T14:55:45;3.25;;;1.00;;
69197;SDS011;56311;50.298;8.514;2022-08-03T14:58:17;3.78;;;0.95;;
69197;SDS011;56311;50.298;8.514;2022-08-03T15:00:47;4.60;;;0.80;;
69197;SDS011;56311;50.298;8.514;2022-08-03T15:03:14;3.08;;;0.95;;
69197;SDS011;56311;50.298;8.514;2022-08-03T15:05:43;4.15;;;1.00;;
69197;SDS011;56311;50.298;8.514;2022-08-03T15:08:10;2.20;;;0.80;;
69197;SDS011;56311;50.298;8.514;2022-08-03T15:10:39;6.55;;;0.80;;
69197;SDS011;56311;50.298;8.514;2022-08-03T15:13:10;2.47;;;1.00;;
69197;SDS011;56311;50.298;8.514;2022-08-03T15:15:37;3.05;;;0.80;;
69197;SDS011;56311;50.298;8.514;2022-08-03T15:18:05;2.40;;;0.70;;
69197;SDS011;56311;50.298;8.514;2022-08-03T15:20:32;1.90;;;0.80;;
69197;SDS011;56311;50.298;8.514;2022-08-03T15:23:15;2.78;;;1.00;;
69197;SDS011;56311;50.298;8.514;2022-08-03T15:25:45;3.35;;;0.80;;
69197;SDS011;56311;50.298;8.514;2022-08-03T15:28:33;2.28;;;0.70;;
69197;SDS011;56311;50.298;8.514;2022-08-03T15:31:02;2.85;;;0.80;;